Aéroport int. de Victoria, Colombie-Britannique

Conditions des dernières 24 heures

Date / Heure
(HAP)
Conditions Temp
(°F)
Humidité
(%)
Point de rosée
(°F)
Vent
(mph)
Pression (pouces) Vis
(mi)
Humidex
27 août 2015
23:00 Généralement nuageux 61 75 53 E 3 29.9 30 *
22:00 Généralement nuageux 60 79 54 SE 5 29.9 30 *
21:00 Généralement nuageux 63 69 53 E 3 29.9 30 *
20:00 Généralement nuageux 64 66 53 ESE 5 29.9 30 *
19:00 Généralement nuageux 69 49 50 ESE 9 29.9 30 71
18:00 Généralement nuageux 69 51 50 ESE 11 30.0 30 72
17:00 Partiellement nuageux 73   45 51 SE 8 30.0 30 76
16:00 Partiellement nuageux 73   44 50 ESE 7 30.0 30 75
15:00 Généralement ensoleillé 72 50 52 SE 8 30.0 30 75
14:00 Partiellement nuageux 70 54 53 ESE 7 30.0 30 74
13:00 Partiellement nuageux 70 56 54 E 7 30.1 30 75
12:00 Généralement nuageux 68 59 53 ESE 5 30.1 30 *
11:00 Généralement nuageux 66 63 54 ESE 6 30.1 30 *
10:00 Partiellement nuageux 64 67 53 ENE 3 30.1 30 *
9:00 Généralement nuageux 60 81 54 SE 4 30.1 30 *
8:00 Généralement nuageux 60 81 54 ESE 3 30.1 30 *
7:00 Généralement nuageux 56   85 52 calme 30.0 30 *
6:00 Généralement nuageux 56   89 53 SSE 2 30.0 30 *
5:00 Généralement nuageux 58 84 53 N 2 30.0 30 *
4:00 Généralement nuageux 57 81 51 SE 4 30.0 30 *
3:00 Généralement nuageux 58 80 52 SSE 4 30.0 30 *
2:00 Généralement nuageux 57 80 51 calme 30.0 30 *
1:00 Généralement nuageux 58 76 50 SO 3 30.0 30 *
0:00 Généralement nuageux 57 77 50 SSO 3 30.0 30 *
26 août 2015
23:00 Généralement nuageux 61 74 53 ENE 2 30.0 30 *
N.D. non disponible
↑ température la plus haute
↓ température la plus basse
* Valeur non significative.

Si vous désirez plus de données historiques sur les conditions météo, s.v.p. visitez Données climatologiques en ligne.

Ce que nous faisons

Date de modification :